sensor_id;sensor_type;location;lat;lon;timestamp;pressure;altitude;pressure_sealevel;temperature;humidity
21203;BME280;10759;51.982;9.232;2022-10-16T00:01:04;99894.09;;;12.33;100.00
21203;BME280;10759;51.982;9.232;2022-10-16T00:03:33;99818.91;;;11.98;100.00
21203;BME280;10759;51.982;9.232;2022-10-16T00:06:02;99911.91;;;12.52;100.00
21203;BME280;10759;51.982;9.232;2022-10-16T00:08:30;99890.44;;;12.34;100.00
21203;BME280;10759;51.982;9.232;2022-10-16T00:11:00;99817.34;;;11.94;100.00
21203;BME280;10759;51.982;9.232;2022-10-16T00:13:29;99909.81;;;12.41;100.00
21203;BME280;10759;51.982;9.232;2022-10-16T00:16:00;99895.44;;;12.24;100.00
21203;BME280;10759;51.982;9.232;2022-10-16T00:18:28;99923.75;;;12.48;100.00
21203;BME280;10759;51.982;9.232;2022-10-16T00:21:02;99919.28;;;12.48;100.00
21203;BME280;10759;51.982;9.232;2022-10-16T00:23:31;99908.28;;;12.35;100.00
21203;BME280;10759;51.982;9.232;2022-10-16T00:26:01;99924.41;;;12.35;100.00
21203;BME280;10759;51.982;9.232;2022-10-16T00:28:29;99908.47;;;12.32;100.00
21203;BME280;10759;51.982;9.232;2022-10-16T00:31:03;99917.00;;;12.40;100.00
21203;BME280;10759;51.982;9.232;2022-10-16T00:33:32;99930.69;;;12.36;100.00
21203;BME280;10759;51.982;9.232;2022-10-16T00:36:01;99798.06;;;11.51;100.00
21203;BME280;10759;51.982;9.232;2022-10-16T00:38:30;99933.91;;;12.25;100.00
21203;BME280;10759;51.982;9.232;2022-10-16T00:40:59;99931.78;;;12.14;100.00
21203;BME280;10759;51.982;9.232;2022-10-16T00:43:36;99936.34;;;12.30;100.00
21203;BME280;10759;51.982;9.232;2022-10-16T00:46:12;99942.06;;;12.23;100.00
21203;BME280;10759;51.982;9.232;2022-10-16T00:48:43;99832.63;;;11.57;100.00
21203;BME280;10759;51.982;9.232;2022-10-16T00:51:13;99929.31;;;12.27;100.00
21203;BME280;10759;51.982;9.232;2022-10-16T00:53:42;99934.53;;;12.30;100.00
21203;BME280;10759;51.982;9.232;2022-10-16T00:56:10;99946.47;;;12.24;100.00
21203;BME280;10759;51.982;9.232;2022-10-16T00:58:38;99927.03;;;12.19;100.00
21203;BME280;10759;51.982;9.232;2022-10-16T01:01:08;99924.66;;;12.13;100.00
21203;BME280;10759;51.982;9.232;2022-10-16T01:03:36;99887.16;;;11.94;100.00
21203;BME280;10759;51.982;9.232;2022-10-16T01:06:12;99932.09;;;12.08;100.00
21203;BME280;10759;51.982;9.232;2022-10-16T01:08:56;99935.56;;;12.10;100.00
21203;BME280;10759;51.982;9.232;2022-10-16T01:11:32;99937.31;;;12.11;100.00
21203;BME280;10759;51.982;9.232;2022-10-16T01:14:06;99908.41;;;11.99;100.00
21203;BME280;10759;51.982;9.232;2022-10-16T01:16:42;99911.50;;;12.09;100.00
21203;BME280;10759;51.982;9.232;2022-10-16T01:19:14;99926.09;;;12.03;100.00
21203;BME280;10759;51.982;9.232;2022-10-16T01:21:47;99940.13;;;12.08;100.00
21203;BME280;10759;51.982;9.232;2022-10-16T01:24:25;99916.75;;;11.93;100.00
21203;BME280;10759;51.982;9.232;2022-10-16T01:27:09;99895.06;;;11.78;100.00
21203;BME280;10759;51.982;9.232;2022-10-16T01:29:40;99953.03;;;12.01;100.00
21203;BME280;10759;51.982;9.232;2022-10-16T01:32:15;99898.25;;;11.69;100.00
21203;BME280;10759;51.982;9.232;2022-10-16T01:34:48;99948.06;;;11.94;100.00
21203;BME280;10759;51.982;9.232;2022-10-16T01:37:24;99938.59;;;11.85;100.00
21203;BME280;10759;51.982;9.232;2022-10-16T01:39:58;99921.91;;;11.78;100.00
21203;BME280;10759;51.982;9.232;2022-10-16T01:42:33;99954.44;;;11.91;100.00
21203;BME280;10759;51.982;9.232;2022-10-16T01:45:04;99933.44;;;11.80;100.00
21203;BME280;10759;51.982;9.232;2022-10-16T01:47:35;99921.19;;;11.57;100.00
21203;BME280;10759;51.982;9.232;2022-10-16T01:50:04;99963.22;;;11.76;100.00
21203;BME280;10759;51.982;9.232;2022-10-16T01:52:37;99953.66;;;11.70;100.00
21203;BME280;10759;51.982;9.232;2022-10-16T01:55:08;99974.22;;;11.89;100.00
21203;BME280;10759;51.982;9.232;2022-10-16T01:57:42;99953.50;;;11.73;100.00
21203;BME280;10759;51.982;9.232;2022-10-16T02:00:14;99943.94;;;11.68;100.00
21203;BME280;10759;51.982;9.232;2022-10-16T02:02:46;99981.78;;;11.80;100.00
21203;BME280;10759;51.982;9.232;2022-10-16T02:05:20;99981.94;;;11.77;100.00
21203;BME280;10759;51.982;9.232;2022-10-16T02:07:49;99987.88;;;11.84;100.00
21203;BME280;10759;51.982;9.232;2022-10-16T02:10:17;99983.66;;;11.78;100.00
21203;BME280;10759;51.982;9.232;2022-10-16T02:12:50;99981.13;;;11.75;100.00
21203;BME280;10759;51.982;9.232;2022-10-16T02:15:21;99959.63;;;11.58;100.00
21203;BME280;10759;51.982;9.232;2022-10-16T02:17:49;99933.31;;;11.47;100.00
21203;BME280;10759;51.982;9.232;2022-10-16T02:20:21;99977.38;;;11.79;100.00
21203;BME280;10759;51.982;9.232;2022-10-16T02:22:53;99987.88;;;11.84;100.00
21203;BME280;10759;51.982;9.232;2022-10-16T02:25:26;99931.34;;;11.51;100.00
21203;BME280;10759;51.982;9.232;2022-10-16T02:28:02;99979.94;;;11.81;100.00
21203;BME280;10759;51.982;9.232;2022-10-16T02:30:34;99979.72;;;11.86;100.00
21203;BME280;10759;51.982;9.232;2022-10-16T02:33:06;99975.13;;;11.89;100.00
21203;BME280;10759;51.982;9.232;2022-10-16T02:35:36;99981.19;;;11.93;100.00
21203;BME280;10759;51.982;9.232;2022-10-16T02:38:06;99978.94;;;11.83;100.00
21203;BME280;10759;51.982;9.232;2022-10-16T02:40:36;99956.66;;;11.64;100.00
21203;BME280;10759;51.982;9.232;2022-10-16T02:43:06;99985.56;;;11.76;100.00
21203;BME280;10759;51.982;9.232;2022-10-16T02:45:35;99958.03;;;11.54;100.00
21203;BME280;10759;51.982;9.232;2022-10-16T02:48:03;99958.03;;;11.54;100.00
21203;BME280;10759;51.982;9.232;2022-10-16T02:50:31;99969.81;;;11.69;100.00
21203;BME280;10759;51.982;9.232;2022-10-16T02:52:59;99975.56;;;11.61;100.00
21203;BME280;10759;51.982;9.232;2022-10-16T02:55:27;99970.94;;;11.65;100.00
21203;BME280;10759;51.982;9.232;2022-10-16T02:57:55;99975.00;;;11.54;100.00
21203;BME280;10759;51.982;9.232;2022-10-16T03:00:25;99973.25;;;11.53;100.00
21203;BME280;10759;51.982;9.232;2022-10-16T03:02:53;99953.13;;;11.45;100.00
21203;BME280;10759;51.982;9.232;2022-10-16T03:05:21;99977.31;;;11.43;100.00
21203;BME280;10759;51.982;9.232;2022-10-16T03:07:49;99978.78;;;11.50;100.00
21203;BME280;10759;51.982;9.232;2022-10-16T03:10:17;99857.75;;;10.82;100.00
21203;BME280;10759;51.982;9.232;2022-10-16T03:12:45;99933.91;;;11.35;100.00
21203;BME280;10759;51.982;9.232;2022-10-16T03:15:13;99964.63;;;11.47;100.00
21203;BME280;10759;51.982;9.232;2022-10-16T03:17:42;99960.66;;;11.36;100.00
21203;BME280;10759;51.982;9.232;2022-10-16T03:20:10;99971.53;;;11.52;100.00
21203;BME280;10759;51.982;9.232;2022-10-16T03:22:38;99934.84;;;11.34;100.00
21203;BME280;10759;51.982;9.232;2022-10-16T03:25:07;99970.47;;;11.74;100.00
21203;BME280;10759;51.982;9.232;2022-10-16T03:27:35;99967.50;;;11.61;100.00
21203;BME280;10759;51.982;9.232;2022-10-16T03:30:03;99983.78;;;11.58;100.00
21203;BME280;10759;51.982;9.232;2022-10-16T03:32:31;99993.53;;;11.59;100.00
21203;BME280;10759;51.982;9.232;2022-10-16T03:35:04;99996.16;;;11.60;100.00
21203;BME280;10759;51.982;9.232;2022-10-16T03:37:32;100000.94;;;11.54;100.00
21203;BME280;10759;51.982;9.232;2022-10-16T03:40:00;99971.31;;;11.38;100.00
21203;BME280;10759;51.982;9.232;2022-10-16T03:42:28;99995.59;;;11.54;100.00
21203;BME280;10759;51.982;9.232;2022-10-16T03:44:56;99951.94;;;11.31;100.00
21203;BME280;10759;51.982;9.232;2022-10-16T03:47:24;99977.75;;;11.53;100.00
21203;BME280;10759;51.982;9.232;2022-10-16T03:49:52;99983.84;;;11.56;100.00
21203;BME280;10759;51.982;9.232;2022-10-16T03:52:22;99957.84;;;11.39;100.00
21203;BME280;10759;51.982;9.232;2022-10-16T03:54:50;99984.72;;;11.57;100.00
21203;BME280;10759;51.982;9.232;2022-10-16T03:57:18;99874.69;;;10.83;100.00
21203;BME280;10759;51.982;9.232;2022-10-16T03:59:47;99964.28;;;11.35;100.00
21203;BME280;10759;51.982;9.232;2022-10-16T04:02:15;99994.06;;;11.48;100.00
21203;BME280;10759;51.982;9.232;2022-10-16T04:04:42;99948.63;;;11.26;100.00
21203;BME280;10759;51.982;9.232;2022-10-16T04:07:11;100008.22;;;11.52;100.00
21203;BME280;10759;51.982;9.232;2022-10-16T04:09:40;99985.00;;;11.32;100.00
21203;BME280;10759;51.982;9.232;2022-10-16T04:12:08;99994.72;;;11.34;100.00
21203;BME280;10759;51.982;9.232;2022-10-16T04:14:36;100005.88;;;11.44;100.00
21203;BME280;10759;51.982;9.232;2022-10-16T04:17:04;100009.47;;;11.45;100.00
21203;BME280;10759;51.982;9.232;2022-10-16T04:19:32;99997.94;;;11.43;100.00
21203;BME280;10759;51.982;9.232;2022-10-16T04:21:59;99994.38;;;11.42;100.00
21203;BME280;10759;51.982;9.232;2022-10-16T04:24:27;100003.94;;;11.48;100.00
21203;BME280;10759;51.982;9.232;2022-10-16T04:26:57;99839.34;;;10.56;100.00
21203;BME280;10759;51.982;9.232;2022-10-16T04:29:25;99996.75;;;11.29;100.00
21203;BME280;10759;51.982;9.232;2022-10-16T04:31:53;99996.47;;;11.35;100.00
21203;BME280;10759;51.982;9.232;2022-10-16T04:34:21;100009.38;;;11.27;100.00
21203;BME280;10759;51.982;9.232;2022-10-16T04:36:49;99808.84;;;10.19;100.00
21203;BME280;10759;51.982;9.232;2022-10-16T04:39:17;100000.09;;;11.34;100.00
21203;BME280;10759;51.982;9.232;2022-10-16T04:41:45;100005.75;;;11.28;100.00
21203;BME280;10759;51.982;9.232;2022-10-16T04:44:14;100015.63;;;11.28;100.00
21203;BME280;10759;51.982;9.232;2022-10-16T04:46:42;100008.94;;;11.36;100.00
21203;BME280;10759;51.982;9.232;2022-10-16T04:49:10;99978.50;;;11.18;100.00
21203;BME280;10759;51.982;9.232;2022-10-16T04:51:38;100031.84;;;11.44;100.00
21203;BME280;10759;51.982;9.232;2022-10-16T04:54:06;100011.78;;;11.33;100.00
21203;BME280;10759;51.982;9.232;2022-10-16T04:56:34;100011.78;;;11.33;100.00
21203;BME280;10759;51.982;9.232;2022-10-16T04:59:09;99991.84;;;11.20;100.00
21203;BME280;10759;51.982;9.232;2022-10-16T05:01:38;100024.66;;;11.44;100.00
21203;BME280;10759;51.982;9.232;2022-10-16T05:04:06;100022.06;;;11.43;100.00
21203;BME280;10759;51.982;9.232;2022-10-16T05:06:34;100016.41;;;11.30;100.00
21203;BME280;10759;51.982;9.232;2022-10-16T05:09:02;100025.34;;;11.30;100.00
21203;BME280;10759;51.982;9.232;2022-10-16T05:11:31;100028.94;;;11.29;100.00
21203;BME280;10759;51.982;9.232;2022-10-16T05:13:59;100012.97;;;11.07;100.00
21203;BME280;10759;51.982;9.232;2022-10-16T05:16:27;100038.19;;;11.22;100.00
21203;BME280;10759;51.982;9.232;2022-10-16T05:18:58;100052.72;;;11.18;100.00
21203;BME280;10759;51.982;9.232;2022-10-16T05:21:46;100040.53;;;11.11;100.00
21203;BME280;10759;51.982;9.232;2022-10-16T05:24:14;100043.22;;;11.11;100.00
21203;BME280;10759;51.982;9.232;2022-10-16T05:26:42;100043.88;;;11.16;100.00
21203;BME280;10759;51.982;9.232;2022-10-16T05:29:09;100030.22;;;11.02;100.00
21203;BME280;10759;51.982;9.232;2022-10-16T05:31:37;100055.00;;;11.07;100.00
21203;BME280;10759;51.982;9.232;2022-10-16T05:34:07;99933.28;;;10.32;100.00
21203;BME280;10759;51.982;9.232;2022-10-16T05:36:35;100041.44;;;10.91;100.00
21203;BME280;10759;51.982;9.232;2022-10-16T05:39:03;100049.63;;;10.88;100.00
21203;BME280;10759;51.982;9.232;2022-10-16T05:41:31;100058.63;;;10.85;100.00
21203;BME280;10759;51.982;9.232;2022-10-16T05:43:59;99958.56;;;10.25;100.00
21203;BME280;10759;51.982;9.232;2022-10-16T05:46:27;100024.44;;;10.51;100.00
21203;BME280;10759;51.982;9.232;2022-10-16T05:48:55;100069.75;;;10.96;100.00
21203;BME280;10759;51.982;9.232;2022-10-16T05:51:24;99974.78;;;10.42;100.00
21203;BME280;10759;51.982;9.232;2022-10-16T05:53:52;100061.16;;;11.09;100.00
21203;BME280;10759;51.982;9.232;2022-10-16T05:56:20;100064.25;;;11.20;100.00
21203;BME280;10759;51.982;9.232;2022-10-16T05:58:48;100063.34;;;11.20;100.00
21203;BME280;10759;51.982;9.232;2022-10-16T06:01:17;100054.44;;;11.19;100.00
21203;BME280;10759;51.982;9.232;2022-10-16T06:03:46;100081.66;;;11.30;100.00
21203;BME280;10759;51.982;9.232;2022-10-16T06:06:15;100097.69;;;11.51;100.00
21203;BME280;10759;51.982;9.232;2022-10-16T06:08:46;100074.06;;;11.40;100.00
21203;BME280;10759;51.982;9.232;2022-10-16T06:11:15;100094.97;;;11.52;100.00
21203;BME280;10759;51.982;9.232;2022-10-16T06:13:43;100069.50;;;11.42;100.00
21203;BME280;10759;51.982;9.232;2022-10-16T06:16:13;100081.91;;;11.45;100.00
21203;BME280;10759;51.982;9.232;2022-10-16T06:18:41;100099.16;;;11.58;100.00
21203;BME280;10759;51.982;9.232;2022-10-16T06:21:10;100100.03;;;11.58;100.00
21203;BME280;10759;51.982;9.232;2022-10-16T06:23:38;100110.13;;;11.72;100.00
21203;BME280;10759;51.982;9.232;2022-10-16T06:26:08;100112.66;;;11.75;100.00
21203;BME280;10759;51.982;9.232;2022-10-16T06:28:37;100114.50;;;11.75;100.00
21203;BME280;10759;51.982;9.232;2022-10-16T06:31:07;100125.88;;;11.80;100.00
21203;BME280;10759;51.982;9.232;2022-10-16T06:33:36;100113.69;;;11.73;100.00
21203;BME280;10759;51.982;9.232;2022-10-16T06:36:06;100098.16;;;11.79;100.00
21203;BME280;10759;51.982;9.232;2022-10-16T06:38:35;100072.47;;;11.74;100.00
21203;BME280;10759;51.982;9.232;2022-10-16T06:41:05;100128.06;;;12.10;100.00
21203;BME280;10759;51.982;9.232;2022-10-16T06:43:34;100138.44;;;12.17;100.00
21203;BME280;10759;51.982;9.232;2022-10-16T06:46:03;100141.88;;;12.21;100.00
21203;BME280;10759;51.982;9.232;2022-10-16T06:48:32;100140.69;;;12.27;100.00
21203;BME280;10759;51.982;9.232;2022-10-16T06:51:01;100142.94;;;12.36;100.00
21203;BME280;10759;51.982;9.232;2022-10-16T06:53:32;100144.44;;;12.41;100.00
21203;BME280;10759;51.982;9.232;2022-10-16T06:56:16;100140.50;;;12.49;100.00
21203;BME280;10759;51.982;9.232;2022-10-16T06:58:46;100161.00;;;12.51;100.00
21203;BME280;10759;51.982;9.232;2022-10-16T07:01:15;100165.13;;;12.58;100.00
21203;BME280;10759;51.982;9.232;2022-10-16T07:03:45;100122.09;;;12.41;100.00
21203;BME280;10759;51.982;9.232;2022-10-16T07:06:15;100099.31;;;12.31;100.00
21203;BME280;10759;51.982;9.232;2022-10-16T07:08:44;100161.97;;;12.67;100.00
21203;BME280;10759;51.982;9.232;2022-10-16T07:11:13;100159.03;;;12.72;100.00
21203;BME280;10759;51.982;9.232;2022-10-16T07:13:43;100120.75;;;12.50;100.00
21203;BME280;10759;51.982;9.232;2022-10-16T07:16:22;100183.97;;;12.76;100.00
21203;BME280;10759;51.982;9.232;2022-10-16T07:18:50;100186.66;;;12.76;100.00
21203;BME280;10759;51.982;9.232;2022-10-16T07:21:25;100195.19;;;12.84;100.00
21203;BME280;10759;51.982;9.232;2022-10-16T07:23:57;100188.63;;;12.89;100.00
21203;BME280;10759;51.982;9.232;2022-10-16T07:26:27;100171.50;;;12.92;100.00
21203;BME280;10759;51.982;9.232;2022-10-16T07:28:56;100195.72;;;13.09;100.00
21203;BME280;10759;51.982;9.232;2022-10-16T07:31:26;100197.59;;;13.25;100.00
21203;BME280;10759;51.982;9.232;2022-10-16T07:33:55;100196.38;;;13.32;100.00
21203;BME280;10759;51.982;9.232;2022-10-16T07:36:22;100204.44;;;13.32;100.00
21203;BME280;10759;51.982;9.232;2022-10-16T07:38:50;100210.38;;;13.56;100.00
21203;BME280;10759;51.982;9.232;2022-10-16T07:41:24;100202.34;;;13.88;100.00
21203;BME280;10759;51.982;9.232;2022-10-16T07:43:53;100210.47;;;14.04;100.00
21203;BME280;10759;51.982;9.232;2022-10-16T07:46:22;100192.06;;;14.12;100.00
21203;BME280;10759;51.982;9.232;2022-10-16T07:48:51;100202.31;;;14.37;100.00
21203;BME280;10759;51.982;9.232;2022-10-16T07:51:23;100226.72;;;14.67;100.00
21203;BME280;10759;51.982;9.232;2022-10-16T07:53:52;100222.00;;;14.87;100.00
21203;BME280;10759;51.982;9.232;2022-10-16T07:56:20;100226.69;;;14.99;100.00
21203;BME280;10759;51.982;9.232;2022-10-16T07:58:50;100231.72;;;15.05;100.00
21203;BME280;10759;51.982;9.232;2022-10-16T08:01:18;100240.91;;;15.17;100.00
21203;BME280;10759;51.982;9.232;2022-10-16T08:03:47;100233.94;;;15.13;100.00
21203;BME280;10759;51.982;9.232;2022-10-16T08:06:18;100179.97;;;14.82;100.00
21203;BME280;10759;51.982;9.232;2022-10-16T08:08:52;100242.84;;;15.15;100.00
21203;BME280;10759;51.982;9.232;2022-10-16T08:11:20;100216.31;;;14.91;100.00
21203;BME280;10759;51.982;9.232;2022-10-16T08:13:48;100264.78;;;15.09;100.00
21203;BME280;10759;51.982;9.232;2022-10-16T08:16:16;100257.97;;;15.17;100.00
21203;BME280;10759;51.982;9.232;2022-10-16T08:18:44;100257.00;;;15.18;100.00
21203;BME280;10759;51.982;9.232;2022-10-16T08:21:14;100257.66;;;15.38;100.00
21203;BME280;10759;51.982;9.232;2022-10-16T08:23:48;100266.50;;;15.56;100.00
21203;BME280;10759;51.982;9.232;2022-10-16T08:26:24;100241.59;;;15.51;100.00
21203;BME280;10759;51.982;9.232;2022-10-16T08:28:53;100264.66;;;15.56;100.00
21203;BME280;10759;51.982;9.232;2022-10-16T08:31:22;100237.25;;;15.48;100.00
21203;BME280;10759;51.982;9.232;2022-10-16T08:33:50;100261.84;;;15.58;100.00
21203;BME280;10759;51.982;9.232;2022-10-16T08:36:19;100145.75;;;14.99;100.00
21203;BME280;10759;51.982;9.232;2022-10-16T08:38:49;100262.16;;;15.67;100.00
21203;BME280;10759;51.982;9.232;2022-10-16T08:41:29;100222.81;;;15.19;100.00
21203;BME280;10759;51.982;9.232;2022-10-16T08:44:29;100262.50;;;15.47;100.00
21203;BME280;10759;51.982;9.232;2022-10-16T08:47:06;100269.50;;;15.35;100.00
21203;BME280;10759;51.982;9.232;2022-10-16T08:49:41;100278.66;;;15.33;100.00
21203;BME280;10759;51.982;9.232;2022-10-16T08:52:12;100281.94;;;15.38;100.00
21203;BME280;10759;51.982;9.232;2022-10-16T08:54:44;100262.13;;;15.23;100.00
21203;BME280;10759;51.982;9.232;2022-10-16T08:57:16;100254.47;;;15.31;100.00
21203;BME280;10759;51.982;9.232;2022-10-16T08:59:50;100301.41;;;15.59;100.00
21203;BME280;10759;51.982;9.232;2022-10-16T09:02:24;100299.84;;;15.55;100.00
21203;BME280;10759;51.982;9.232;2022-10-16T09:05:02;100310.16;;;15.48;100.00
21203;BME280;10759;51.982;9.232;2022-10-16T09:07:43;100290.97;;;15.53;100.00
21203;BME280;10759;51.982;9.232;2022-10-16T09:10:29;100310.59;;;15.86;100.00
21203;BME280;10759;51.982;9.232;2022-10-16T09:13:11;100312.84;;;16.08;100.00
21203;BME280;10759;51.982;9.232;2022-10-16T09:15:48;100265.16;;;16.07;100.00
21203;BME280;10759;51.982;9.232;2022-10-16T09:18:24;100251.34;;;16.26;100.00
21203;BME280;10759;51.982;9.232;2022-10-16T09:21:01;100316.03;;;16.58;100.00
21203;BME280;10759;51.982;9.232;2022-10-16T09:23:35;100321.41;;;16.72;100.00
21203;BME280;10759;51.982;9.232;2022-10-16T09:26:10;100328.28;;;16.78;100.00
21203;BME280;10759;51.982;9.232;2022-10-16T09:28:39;100339.69;;;16.83;99.66
21203;BME280;10759;51.982;9.232;2022-10-16T09:31:13;100334.53;;;17.07;100.00
21203;BME280;10759;51.982;9.232;2022-10-16T09:33:44;100269.91;;;16.74;97.66
21203;BME280;10759;51.982;9.232;2022-10-16T09:36:13;100336.72;;;17.15;95.86
21203;BME280;10759;51.982;9.232;2022-10-16T09:38:41;100337.69;;;17.14;100.00
21203;BME280;10759;51.982;9.232;2022-10-16T09:41:17;100350.78;;;17.34;94.56
21203;BME280;10759;51.982;9.232;2022-10-16T09:43:48;100355.88;;;17.12;94.06
21203;BME280;10759;51.982;9.232;2022-10-16T09:46:28;100326.81;;;17.01;91.98
21203;BME280;10759;51.982;9.232;2022-10-16T09:48:58;100356.09;;;17.09;92.91
21203;BME280;10759;51.982;9.232;2022-10-16T09:51:27;100356.47;;;17.03;93.86
21203;BME280;10759;51.982;9.232;2022-10-16T09:53:58;100360.22;;;17.14;94.34
21203;BME280;10759;51.982;9.232;2022-10-16T09:56:29;100299.84;;;17.00;91.12
21203;BME280;10759;51.982;9.232;2022-10-16T09:59:00;100358.38;;;17.42;91.08
21203;BME280;10759;51.982;9.232;2022-10-16T10:01:35;100355.81;;;17.41;90.93
21203;BME280;10759;51.982;9.232;2022-10-16T10:04:05;100364.28;;;17.49;88.62
21203;BME280;10759;51.982;9.232;2022-10-16T10:06:34;100356.44;;;17.71;88.38
21203;BME280;10759;51.982;9.232;2022-10-16T10:09:06;100367.63;;;17.79;86.90
21203;BME280;10759;51.982;9.232;2022-10-16T10:11:55;100367.91;;;18.02;86.43
21203;BME280;10759;51.982;9.232;2022-10-16T10:14:27;100328.66;;;17.82;90.98
21203;BME280;10759;51.982;9.232;2022-10-16T10:17:11;100369.44;;;18.06;85.15
21203;BME280;10759;51.982;9.232;2022-10-16T10:19:42;100377.00;;;18.01;86.73
21203;BME280;10759;51.982;9.232;2022-10-16T10:22:18;100377.44;;;17.95;86.46
21203;BME280;10759;51.982;9.232;2022-10-16T10:24:55;100381.16;;;18.07;86.67
21203;BME280;10759;51.982;9.232;2022-10-16T10:27:32;100337.66;;;18.08;85.59
21203;BME280;10759;51.982;9.232;2022-10-16T10:30:11;100334.50;;;17.89;84.02
21203;BME280;10759;51.982;9.232;2022-10-16T10:32:48;100386.00;;;18.01;83.63
21203;BME280;10759;51.982;9.232;2022-10-16T10:35:24;100394.75;;;17.79;83.80
21203;BME280;10759;51.982;9.232;2022-10-16T10:38:05;100394.03;;;17.63;83.33
21203;BME280;10759;51.982;9.232;2022-10-16T10:40:45;100386.63;;;17.52;84.08
21203;BME280;10759;51.982;9.232;2022-10-16T10:43:33;100397.91;;;17.59;81.95
21203;BME280;10759;51.982;9.232;2022-10-16T10:46:09;100401.94;;;17.66;81.11
21203;BME280;10759;51.982;9.232;2022-10-16T10:48:58;100375.44;;;17.57;81.04
21203;BME280;10759;51.982;9.232;2022-10-16T10:51:38;100394.03;;;17.63;79.73
21203;BME280;10759;51.982;9.232;2022-10-16T10:54:13;100388.00;;;17.72;81.99
21203;BME280;10759;51.982;9.232;2022-10-16T10:56:48;100400.56;;;18.00;83.12
21203;BME280;10759;51.982;9.232;2022-10-16T10:59:43;100381.72;;;18.12;81.38
21203;BME280;10759;51.982;9.232;2022-10-16T11:02:22;100402.44;;;18.26;80.41
21203;BME280;10759;51.982;9.232;2022-10-16T11:05:15;100401.13;;;18.18;75.59
21203;BME280;10759;51.982;9.232;2022-10-16T11:07:49;100397.53;;;18.05;74.70
21203;BME280;10759;51.982;9.232;2022-10-16T11:10:22;100297.81;;;17.30;74.57
21203;BME280;10759;51.982;9.232;2022-10-16T11:12:54;100387.31;;;17.96;74.22
21203;BME280;10759;51.982;9.232;2022-10-16T11:15:28;100361.19;;;17.95;77.17
21203;BME280;10759;51.982;9.232;2022-10-16T11:18:02;100404.03;;;18.15;73.44
21203;BME280;10759;51.982;9.232;2022-10-16T11:20:33;100388.72;;;18.01;72.87
21203;BME280;10759;51.982;9.232;2022-10-16T11:23:08;100387.44;;;17.94;73.33
21203;BME280;10759;51.982;9.232;2022-10-16T11:25:39;100309.88;;;17.52;73.30
21203;BME280;10759;51.982;9.232;2022-10-16T11:28:11;100403.28;;;18.13;76.47
21203;BME280;10759;51.982;9.232;2022-10-16T11:30:46;100387.44;;;18.07;74.09
21203;BME280;10759;51.982;9.232;2022-10-16T11:33:28;100407.31;;;18.20;73.67
21203;BME280;10759;51.982;9.232;2022-10-16T11:36:03;100403.81;;;18.18;74.30
21203;BME280;10759;51.982;9.232;2022-10-16T11:38:38;100412.31;;;18.27;74.65
21203;BME280;10759;51.982;9.232;2022-10-16T11:41:15;100385.28;;;18.12;72.47
21203;BME280;10759;51.982;9.232;2022-10-16T11:43:52;100416.13;;;18.37;71.85
21203;BME280;10759;51.982;9.232;2022-10-16T11:46:27;100408.94;;;18.36;72.21
21203;BME280;10759;51.982;9.232;2022-10-16T11:49:01;100412.66;;;18.35;71.18
21203;BME280;10759;51.982;9.232;2022-10-16T11:51:35;100409.84;;;18.36;72.98
21203;BME280;10759;51.982;9.232;2022-10-16T11:54:10;100404.50;;;18.48;71.24
21203;BME280;10759;51.982;9.232;2022-10-16T11:56:44;100406.69;;;18.42;71.59
21203;BME280;10759;51.982;9.232;2022-10-16T11:59:18;100414.63;;;18.58;72.14
21203;BME280;10759;51.982;9.232;2022-10-16T12:01:54;100399.75;;;18.64;71.08
21203;BME280;10759;51.982;9.232;2022-10-16T12:04:30;100407.22;;;18.60;74.26
21203;BME280;10759;51.982;9.232;2022-10-16T12:07:04;100394.63;;;18.59;70.89
21203;BME280;10759;51.982;9.232;2022-10-16T12:09:36;100335.50;;;18.13;70.16
21203;BME280;10759;51.982;9.232;2022-10-16T12:12:23;100415.03;;;18.52;71.49
21203;BME280;10759;51.982;9.232;2022-10-16T12:15:00;100414.19;;;18.39;70.55
21203;BME280;10759;51.982;9.232;2022-10-16T12:17:47;100367.63;;;18.19;72.07
21203;BME280;10759;51.982;9.232;2022-10-16T12:20:24;100417.53;;;18.42;70.47
21203;BME280;10759;51.982;9.232;2022-10-16T12:22:54;100399.09;;;18.35;69.14
21203;BME280;10759;51.982;9.232;2022-10-16T12:25:23;100419.59;;;18.39;70.83
21203;BME280;10759;51.982;9.232;2022-10-16T12:27:57;100409.94;;;18.35;69.56
21203;BME280;10759;51.982;9.232;2022-10-16T12:30:27;100417.84;;;18.38;70.56
21203;BME280;10759;51.982;9.232;2022-10-16T12:33:04;100420.25;;;18.42;70.58
21203;BME280;10759;51.982;9.232;2022-10-16T12:35:35;100405.50;;;18.34;71.99
21203;BME280;10759;51.982;9.232;2022-10-16T12:38:16;100427.06;;;18.48;70.61
21203;BME280;10759;51.982;9.232;2022-10-16T12:40:47;100429.38;;;18.54;71.96
21203;BME280;10759;51.982;9.232;2022-10-16T12:43:27;100401.47;;;18.52;70.01
21203;BME280;10759;51.982;9.232;2022-10-16T12:46:00;100434.47;;;18.72;69.82
21203;BME280;10759;51.982;9.232;2022-10-16T12:48:30;100441.34;;;18.77;69.75
21203;BME280;10759;51.982;9.232;2022-10-16T12:51:24;100441.63;;;18.73;69.23
21203;BME280;10759;51.982;9.232;2022-10-16T12:53:59;100440.25;;;18.93;70.50
21203;BME280;10759;51.982;9.232;2022-10-16T12:56:37;100446.31;;;18.96;67.74
21203;BME280;10759;51.982;9.232;2022-10-16T12:59:15;100400.38;;;18.67;67.08
21203;BME280;10759;51.982;9.232;2022-10-16T13:01:58;100440.91;;;18.83;68.05
21203;BME280;10759;51.982;9.232;2022-10-16T13:04:54;100438.75;;;18.76;66.84
21203;BME280;10759;51.982;9.232;2022-10-16T13:07:40;100352.84;;;18.23;66.40
21203;BME280;10759;51.982;9.232;2022-10-16T13:10:15;100457.44;;;18.80;68.38